Time,TemperatureF,DewpointF,PressureIn,WindDirection,WindDirectionDegrees,WindSpeedMPH,WindSpeedGustMPH,Humidity,HourlyPrecipIn,Conditions,Clouds,dailyrainin,SoftwareType,DateUTC
2013-05-14 00:00:00,64.0,50.7,29.76,South,173,0.0,0.0,62,0.00,,,0.00,Wunderground v.1.15,2013-05-14 05:00:00,
2013-05-14 00:10:00,64.0,51.1,29.76,South,183,0.0,0.0,63,0.00,,,0.00,Wunderground v.1.15,2013-05-14 05:10:00,
2013-05-14 00:20:00,64.2,51.3,29.76,SSW,196,0.0,0.0,63,0.00,,,0.00,Wunderground v.1.15,2013-05-14 05:20:00,
2013-05-14 00:30:00,64.2,51.3,29.75,SSW,194,0.0,0.0,63,0.00,,,0.00,Wunderground v.1.15,2013-05-14 05:30:00,
2013-05-14 00:40:00,64.0,51.6,29.75,South,173,0.0,1.0,64,0.00,,,0.00,Wunderground v.1.15,2013-05-14 05:40:00,
2013-05-14 00:50:00,64.0,51.6,29.75,South,180,0.0,2.0,64,0.00,,,0.00,Wunderground v.1.15,2013-05-14 05:50:00,
2013-05-14 01:00:00,64.0,52.0,29.75,SW,228,0.0,0.0,65,0.00,,,0.00,Wunderground v.1.15,2013-05-14 06:00:00,
2013-05-14 01:10:00,64.0,52.0,29.75,SSW,213,0.0,5.0,65,0.00,,,0.00,Wunderground v.1.15,2013-05-14 06:10:00,
2013-05-14 01:20:00,64.0,52.4,29.74,SSE,148,0.0,5.0,66,0.00,,,0.00,Wunderground v.1.15,2013-05-14 06:20:00,
2013-05-14 01:30:00,64.0,52.4,29.73,SSE,155,0.0,5.0,66,0.00,,,0.00,Wunderground v.1.15,2013-05-14 06:30:00,
2013-05-14 01:40:00,63.9,52.7,29.73,SSW,211,0.0,5.0,67,0.00,,,0.00,Wunderground v.1.15,2013-05-14 06:40:00,
2013-05-14 01:50:00,63.7,52.5,29.72,SSW,205,0.0,5.0,67,0.00,,,0.00,Wunderground v.1.15,2013-05-14 06:50:00,
2013-05-14 02:00:00,63.4,52.7,29.72,SSW,194,0.0,5.0,68,0.00,,,0.00,Wunderground v.1.15,2013-05-14 07:00:00,
2013-05-14 02:10:00,63.2,52.9,29.72,SSW,203,0.0,5.0,69,0.00,,,0.00,Wunderground v.1.15,2013-05-14 07:10:00,
2013-05-14 02:20:00,63.1,53.2,29.72,SSW,211,0.0,5.0,70,0.00,,,0.00,Wunderground v.1.15,2013-05-14 07:20:00,
2013-05-14 02:30:00,62.9,53.4,29.71,SW,234,0.0,5.0,71,0.00,,,0.00,Wunderground v.1.15,2013-05-14 07:30:00,
2013-05-14 02:40:00,62.7,53.2,29.71,SW,234,0.0,5.0,71,0.00,,,0.00,Wunderground v.1.15,2013-05-14 07:40:00,
2013-05-14 02:50:00,62.6,53.4,29.70,SW,234,0.0,5.0,72,0.00,,,0.00,Wunderground v.1.15,2013-05-14 07:50:00,
2013-05-14 03:00:00,62.4,53.6,29.70,SSW,202,0.0,5.0,73,0.00,,,0.00,Wunderground v.1.15,2013-05-14 08:00:00,
2013-05-14 03:10:00,62.3,53.5,29.70,SSW,213,0.0,5.0,73,0.00,,,0.00,Wunderground v.1.15,2013-05-14 08:10:00,
2013-05-14 03:20:00,62.1,53.7,29.70,SSW,209,0.0,5.0,74,0.00,,,0.00,Wunderground v.1.15,2013-05-14 08:20:00,
2013-05-14 03:30:00,62.1,53.7,29.70,WNW,295,0.0,5.0,74,0.00,,,0.00,Wunderground v.1.15,2013-05-14 08:30:00,
2013-05-14 03:40:00,62.0,53.6,29.70,SW,220,0.0,5.0,74,0.00,,,0.00,Wunderground v.1.15,2013-05-14 08:40:00,
2013-05-14 03:50:00,62.0,54.0,29.70,South,174,0.0,5.0,75,0.00,,,0.00,Wunderground v.1.15,2013-05-14 08:50:00,
2013-05-14 04:00:00,61.8,53.8,29.70,SW,234,0.0,5.0,75,0.00,,,0.00,Wunderground v.1.15,2013-05-14 09:00:00,
2013-05-14 04:10:00,61.8,54.2,29.70,SW,232,0.0,5.0,76,0.00,,,0.00,Wunderground v.1.15,2013-05-14 09:10:00,
2013-05-14 04:20:00,61.8,54.2,29.70,SW,229,0.0,5.0,76,0.00,,,0.00,Wunderground v.1.15,2013-05-14 09:20:00,
2013-05-14 04:30:00,61.8,54.2,29.70,SW,227,0.0,5.0,76,0.00,,,0.00,Wunderground v.1.15,2013-05-14 09:30:00,
2013-05-14 04:40:00,61.8,54.2,29.70,SW,229,0.0,5.0,76,0.00,,,0.00,Wunderground v.1.15,2013-05-14 09:40:00,
2013-05-14 04:50:00,61.6,54.0,29.69,SW,228,0.0,5.0,76,0.00,,,0.00,Wunderground v.1.15,2013-05-14 09:50:00,
2013-05-14 05:00:00,61.6,54.3,29.69,South,179,0.0,5.0,77,0.00,,,0.00,Wunderground v.1.15,2013-05-14 10:00:00,
2013-05-14 05:10:00,61.5,54.2,29.69,WSW,238,0.0,5.0,77,0.00,,,0.00,Wunderground v.1.15,2013-05-14 10:10:00,
2013-05-14 05:20:00,61.3,54.0,29.69,WSW,238,0.0,5.0,77,0.00,,,0.00,Wunderground v.1.15,2013-05-14 10:20:00,
2013-05-14 05:30:00,61.2,53.9,29.69,WSW,249,0.0,5.0,77,0.00,,,0.00,Wunderground v.1.15,2013-05-14 10:30:00,
2013-05-14 05:40:00,61.0,54.1,29.69,WSW,242,0.0,5.0,78,0.00,,,0.00,Wunderground v.1.15,2013-05-14 10:40:00,
2013-05-14 05:50:00,60.7,53.8,29.69,WSW,242,0.0,5.0,78,0.00,,,0.00,Wunderground v.1.15,2013-05-14 10:50:00,
2013-05-14 06:00:00,60.5,54.0,29.69,SW,225,0.0,5.0,79,0.00,,,0.00,Wunderground v.1.15,2013-05-14 11:00:00,
2013-05-14 06:10:00,60.4,53.9,29.69,SW,225,0.0,5.0,79,0.00,,,0.00,Wunderground v.1.15,2013-05-14 11:10:00,
2013-05-14 06:20:00,60.2,54.0,29.69,SW,225,0.0,5.0,80,0.00,,,0.00,Wunderground v.1.15,2013-05-14 11:20:00,
2013-05-14 06:30:00,60.2,54.0,29.69,SW,223,0.0,5.0,80,0.00,,,0.00,Wunderground v.1.15,2013-05-14 11:30:00,
2013-05-14 06:40:00,60.2,54.3,29.69,SW,219,0.0,5.0,81,0.00,,,0.00,Wunderground v.1.15,2013-05-14 11:40:00,
2013-05-14 06:50:00,60.4,54.5,29.69,SW,219,0.0,5.0,81,0.00,,,0.00,Wunderground v.1.15,2013-05-14 11:50:00,
2013-05-14 07:00:00,60.4,54.5,29.69,SW,220,0.0,5.0,81,0.00,,,0.00,Wunderground v.1.15,2013-05-14 12:00:00,
2013-05-14 07:10:00,60.9,55.0,29.69,SW,221,0.0,5.0,81,0.00,,,0.00,Wunderground v.1.15,2013-05-14 12:10:00,
2013-05-14 07:20:00,61.3,55.1,29.69,WSW,239,0.0,5.0,80,0.00,,,0.00,Wunderground v.1.15,2013-05-14 12:20:00,
2013-05-14 07:30:00,62.0,55.8,29.69,SW,233,0.0,5.0,80,0.00,,,0.00,Wunderground v.1.15,2013-05-14 12:30:00,
2013-05-14 07:40:00,62.7,55.7,29.69,SW,227,0.0,5.0,78,0.00,,,0.00,Wunderground v.1.15,2013-05-14 12:40:00,
2013-05-14 07:50:00,63.5,56.2,29.69,SW,218,0.0,5.0,77,0.00,,,0.00,Wunderground v.1.15,2013-05-14 12:50:00,
2013-05-14 08:00:00,64.3,56.2,29.69,WSW,238,0.0,5.0,75,0.00,,,0.00,Wunderground v.1.15,2013-05-14 13:00:00,
2013-05-14 08:10:00,66.3,56.6,29.69,SW,220,0.0,5.0,71,0.00,,,0.00,Wunderground v.1.15,2013-05-14 13:10:00,
2013-05-14 08:20:00,67.6,57.1,29.69,South,186,0.0,5.0,69,0.00,,,0.00,Wunderground v.1.15,2013-05-14 13:20:00,
2013-05-14 08:30:00,68.8,57.4,29.69,WSW,256,0.0,5.0,67,0.00,,,0.00,Wunderground v.1.15,2013-05-14 13:30:00,
2013-05-14 08:40:00,69.4,57.1,29.69,WSW,242,0.0,5.0,65,0.00,,,0.00,Wunderground v.1.15,2013-05-14 13:40:00,
2013-05-14 08:50:00,70.6,57.8,29.69,WSW,257,0.0,5.0,64,0.00,,,0.00,Wunderground v.1.15,2013-05-14 13:50:00,
2013-05-14 09:00:00,71.5,58.2,29.68,WSW,257,0.0,5.0,63,0.00,,,0.00,Wunderground v.1.15,2013-05-14 14:00:00,
2013-05-14 09:10:00,72.5,58.3,29.68,SW,227,0.0,5.0,61,0.00,,,0.00,Wunderground v.1.15,2013-05-14 14:10:00,
2013-05-14 09:20:00,73.3,58.1,29.69,SW,232,0.0,5.0,59,0.00,,,0.00,Wunderground v.1.15,2013-05-14 14:20:00,
2013-05-14 09:30:00,74.4,59.6,29.68,West,259,0.0,5.0,60,0.00,,,0.00,Wunderground v.1.15,2013-05-14 14:30:00,
2013-05-14 09:40:00,75.1,58.8,29.68,West,259,0.0,5.0,57,0.00,,,0.00,Wunderground v.1.15,2013-05-14 14:40:00,
2013-05-14 09:50:00,76.1,59.8,29.68,South,187,0.0,5.0,57,0.00,,,0.00,Wunderground v.1.15,2013-05-14 14:50:00,
2013-05-14 10:00:00,76.5,59.6,29.67,SSW,194,0.0,5.0,56,0.00,,,0.00,Wunderground v.1.15,2013-05-14 15:00:00,
2013-05-14 10:10:00,77.6,59.6,29.67,WSW,244,0.0,5.0,54,0.00,,,0.00,Wunderground v.1.15,2013-05-14 15:10:00,
2013-05-14 10:20:00,78.5,59.4,29.67,SW,233,0.0,5.0,52,0.00,,,0.00,Wunderground v.1.15,2013-05-14 15:20:00,
2013-05-14 10:30:00,79.4,60.2,29.66,SW,230,0.0,5.0,52,0.00,,,0.00,Wunderground v.1.15,2013-05-14 15:30:00,
2013-05-14 10:40:00,80.1,59.8,29.66,WSW,240,0.0,5.0,50,0.00,,,0.00,Wunderground v.1.15,2013-05-14 15:40:00,
2013-05-14 10:50:00,81.1,60.7,29.66,WSW,238,0.0,5.0,50,0.00,,,0.00,Wunderground v.1.15,2013-05-14 15:50:00,
2013-05-14 11:00:00,81.6,60.6,29.66,SSW,213,0.0,5.0,49,0.00,,,0.00,Wunderground v.1.15,2013-05-14 16:00:00,
2013-05-14 11:10:00,82.4,60.7,29.66,SSW,212,0.0,5.0,48,0.00,,,0.00,Wunderground v.1.15,2013-05-14 16:10:00,
2013-05-14 11:20:00,83.0,60.1,29.66,South,186,0.0,5.0,46,0.00,,,0.00,Wunderground v.1.15,2013-05-14 16:20:00,
2013-05-14 11:30:00,84.0,62.8,29.65,SW,224,0.0,5.0,49,0.00,,,0.00,Wunderground v.1.15,2013-05-14 16:30:00,
2013-05-14 11:40:00,84.7,62.8,29.65,WSW,257,0.0,5.0,48,0.00,,,0.00,Wunderground v.1.15,2013-05-14 16:40:00,
2013-05-14 11:50:00,85.3,60.9,29.65,South,175,0.0,5.0,44,0.00,,,0.00,Wunderground v.1.15,2013-05-14 16:50:00,
2013-05-14 12:00:00,86.3,59.8,29.64,SSW,202,0.0,5.0,41,0.00,,,0.00,Wunderground v.1.15,2013-05-14 17:00:00,
2013-05-14 12:10:00,87.2,59.2,29.64,SW,225,0.0,5.0,39,0.00,,,0.00,Wunderground v.1.15,2013-05-14 17:10:00,
2013-05-14 12:20:00,88.4,58.8,29.64,SSE,150,0.0,5.0,37,0.00,,,0.00,Wunderground v.1.15,2013-05-14 17:20:00,
2013-05-14 12:30:00,89.0,61.5,29.63,South,176,0.0,5.0,40,0.00,,,0.00,Wunderground v.1.15,2013-05-14 17:30:00,
2013-05-14 12:40:00,89.9,60.1,29.63,WSW,237,1.0,1.0,37,0.00,,,0.00,Wunderground v.1.15,2013-05-14 17:40:00,
2013-05-14 12:50:00,90.3,61.2,29.62,ESE,116,0.0,5.0,38,0.00,,,0.00,Wunderground v.1.15,2013-05-14 17:50:00,
2013-05-14 13:00:00,90.3,59.7,29.62,SE,144,1.0,1.0,36,0.00,,,0.00,Wunderground v.1.15,2013-05-14 18:00:00,
2013-05-14 13:10:00,91.2,61.3,29.62,SW,216,1.0,5.0,37,0.00,,,0.00,Wunderground v.1.15,2013-05-14 18:10:00,
2013-05-14 13:20:00,91.6,62.4,29.61,South,173,1.0,5.0,38,0.00,,,0.00,Wunderground v.1.15,2013-05-14 18:20:00,
2013-05-14 13:30:00,92.1,61.3,29.60,NW,319,1.0,1.0,36,0.00,,,0.00,Wunderground v.1.15,2013-05-14 18:30:00,
2013-05-14 13:40:00,92.7,61.0,29.60,WSW,241,1.0,1.0,35,0.00,,,0.00,Wunderground v.1.15,2013-05-14 18:40:00,
2013-05-14 13:50:00,92.7,60.2,29.60,SE,138,1.0,1.0,34,0.00,,,0.00,Wunderground v.1.15,2013-05-14 18:50:00,
2013-05-14 14:00:00,92.9,58.7,29.60,ESE,115,1.0,1.0,32,0.00,,,0.00,Wunderground v.1.15,2013-05-14 19:00:00,
2013-05-14 14:10:00,93.2,59.0,29.60,SSE,163,1.0,1.0,32,0.00,,,0.00,Wunderground v.1.15,2013-05-14 19:10:00,
2013-05-14 14:20:00,94.0,63.0,29.59,SSW,206,0.0,5.0,36,0.00,,,0.00,Wunderground v.1.15,2013-05-14 19:20:00,
2013-05-14 14:30:00,94.0,58.8,29.59,West,277,0.0,5.0,31,0.00,,,0.00,Wunderground v.1.15,2013-05-14 19:30:00,
2013-05-14 14:40:00,93.4,58.2,29.59,SSW,198,1.0,1.0,31,0.00,,,0.00,Wunderground v.1.15,2013-05-14 19:40:00,
2013-05-14 14:50:00,93.2,56.2,29.58,SW,232,1.0,6.0,29,0.00,,,0.00,Wunderground v.1.15,2013-05-14 19:50:00,
2013-05-14 15:00:00,93.6,57.5,29.58,SSW,197,1.0,5.0,30,0.00,,,0.00,Wunderground v.1.15,2013-05-14 20:00:00,
2013-05-14 15:10:00,92.9,57.8,29.58,South,178,2.0,2.0,31,0.00,,,0.00,Wunderground v.1.15,2013-05-14 20:10:00,
2013-05-14 15:20:00,93.4,60.0,29.57,SSW,192,1.0,5.0,33,0.00,,,0.00,Wunderground v.1.15,2013-05-14 20:20:00,
2013-05-14 15:30:00,93.2,59.0,29.57,SSW,213,1.0,5.0,32,0.00,,,0.00,Wunderground v.1.15,2013-05-14 20:30:00,
2013-05-14 15:40:00,93.4,58.2,29.57,South,188,1.0,1.0,31,0.00,,,0.00,Wunderground v.1.15,2013-05-14 20:40:00,
2013-05-14 15:50:00,93.6,56.6,29.57,South,169,1.0,5.0,29,0.00,,,0.00,Wunderground v.1.15,2013-05-14 20:50:00,
2013-05-14 16:00:00,93.4,56.4,29.56,West,274,2.0,2.0,29,0.00,,,0.00,Wunderground v.1.15,2013-05-14 21:00:00,
2013-05-14 16:10:00,94.0,58.8,29.56,SSW,202,1.0,5.0,31,0.00,,,0.00,Wunderground v.1.15,2013-05-14 21:10:00,
2013-05-14 16:20:00,93.8,57.7,29.56,South,175,1.0,1.0,30,0.00,,,0.00,Wunderground v.1.15,2013-05-14 21:20:00,
2013-05-14 16:30:00,94.0,56.9,29.55,SSW,196,1.0,5.0,29,0.00,,,0.00,Wunderground v.1.15,2013-05-14 21:30:00,
2013-05-14 16:40:00,93.6,55.6,29.55,SSE,148,2.0,2.0,28,0.00,,,0.00,Wunderground v.1.15,2013-05-14 21:40:00,
2013-05-14 16:50:00,93.4,55.4,29.55,SSW,205,2.0,5.0,28,0.00,,,0.00,Wunderground v.1.15,2013-05-14 21:50:00,
2013-05-14 17:00:00,93.6,56.6,29.54,SW,233,1.0,1.0,29,0.00,,,0.00,Wunderground v.1.15,2013-05-14 22:00:00,
2013-05-14 17:10:00,92.9,56.0,29.54,SW,231,1.0,5.0,29,0.00,,,0.00,Wunderground v.1.15,2013-05-14 22:10:00,
2013-05-14 17:20:00,92.5,55.6,29.54,SW,227,2.0,2.0,29,0.00,,,0.00,Wunderground v.1.15,2013-05-14 22:20:00,
2013-05-14 17:30:00,92.1,55.3,29.53,South,186,2.0,2.0,29,0.00,,,0.00,Wunderground v.1.15,2013-05-14 22:30:00,
2013-05-14 17:40:00,91.4,53.7,29.53,SW,221,2.0,7.0,28,0.00,,,0.00,Wunderground v.1.15,2013-05-14 22:40:00,
2013-05-14 17:50:00,91.0,53.4,29.52,South,191,2.0,2.0,28,0.00,,,0.00,Wunderground v.1.15,2013-05-14 22:50:00,
2013-05-14 18:00:00,91.2,54.5,29.52,SSW,207,2.0,6.0,29,0.00,,,0.00,Wunderground v.1.15,2013-05-14 23:00:00,
2013-05-14 18:10:00,91.2,55.4,29.52,ESE,112,2.0,2.0,30,0.00,,,0.00,Wunderground v.1.15,2013-05-14 23:10:00,
2013-05-14 18:20:00,91.0,55.3,29.52,SW,225,1.0,1.0,30,0.00,,,0.00,Wunderground v.1.15,2013-05-14 23:20:00,
2013-05-14 18:30:00,91.0,54.3,29.52,SW,234,1.0,1.0,29,0.00,,,0.00,Wunderground v.1.15,2013-05-14 23:30:00,
2013-05-14 18:40:00,90.7,55.9,29.52,SSW,196,1.0,5.0,31,0.00,,,0.00,Wunderground v.1.15,2013-05-14 23:40:00,
2013-05-14 18:50:00,90.5,54.8,29.51,SE,144,1.0,1.0,30,0.00,,,0.00,Wunderground v.1.15,2013-05-14 23:50:00,
2013-05-14 19:00:00,90.5,54.8,29.50,WNW,289,1.0,1.0,30,0.00,,,0.00,Wunderground v.1.15,2013-05-15 00:00:00,
2013-05-14 19:10:00,90.3,54.7,29.50,SSW,194,0.0,5.0,30,0.00,,,0.00,Wunderground v.1.15,2013-05-15 00:10:00,
2013-05-14 19:20:00,89.9,54.3,29.51,South,190,1.0,1.0,30,0.00,,,0.00,Wunderground v.1.15,2013-05-15 00:20:00,
2013-05-14 19:30:00,89.5,54.0,29.51,WSW,256,0.0,5.0,30,0.00,,,0.00,Wunderground v.1.15,2013-05-15 00:30:00,
2013-05-14 19:40:00,89.0,53.5,29.51,SW,232,1.0,1.0,30,0.00,,,0.00,Wunderground v.1.15,2013-05-15 00:40:00,
2013-05-14 19:50:00,88.4,53.9,29.52,NW,310,0.0,5.0,31,0.00,,,0.00,Wunderground v.1.15,2013-05-15 00:50:00,
2013-05-14 20:00:00,87.6,54.1,29.52,SSE,155,0.0,5.0,32,0.00,,,0.00,Wunderground v.1.15,2013-05-15 01:00:00,
2013-05-14 20:10:00,86.7,53.3,29.52,SW,230,0.0,5.0,32,0.00,,,0.00,Wunderground v.1.15,2013-05-15 01:10:00,
2013-05-14 20:20:00,86.1,53.6,29.52,WSW,237,0.0,5.0,33,0.00,,,0.00,Wunderground v.1.15,2013-05-15 01:20:00,
2013-05-14 20:30:00,85.3,53.8,29.52,WSW,249,0.0,5.0,34,0.00,,,0.00,Wunderground v.1.15,2013-05-15 01:30:00,
2013-05-14 20:40:00,84.5,53.8,29.52,SW,229,0.0,5.0,35,0.00,,,0.00,Wunderground v.1.15,2013-05-15 01:40:00,
2013-05-14 20:50:00,84.0,53.4,29.53,SSW,207,0.0,5.0,35,0.00,,,0.00,Wunderground v.1.15,2013-05-15 01:50:00,
2013-05-14 21:00:00,83.2,52.7,29.54,SSW,197,0.0,5.0,35,0.00,,,0.00,Wunderground v.1.15,2013-05-15 02:00:00,
2013-05-14 21:10:00,82.8,52.3,29.54,SSW,210,0.0,5.0,35,0.00,,,0.00,Wunderground v.1.15,2013-05-15 02:10:00,
2013-05-14 21:20:00,82.4,51.2,29.55,SW,216,1.0,1.0,34,0.00,,,0.00,Wunderground v.1.15,2013-05-15 02:20:00,
2013-05-14 21:30:00,82.2,50.2,29.55,SSW,206,0.0,5.0,33,0.00,,,0.00,Wunderground v.1.15,2013-05-15 02:30:00,
2013-05-14 21:40:00,82.4,48.7,29.55,SW,227,1.0,1.0,31,0.00,,,0.00,Wunderground v.1.15,2013-05-15 02:40:00,
2013-05-14 21:50:00,82.8,48.2,29.56,South,176,1.0,5.0,30,0.00,,,0.00,Wunderground v.1.15,2013-05-15 02:50:00,
2013-05-14 22:00:00,83.0,47.5,29.57,WSW,243,1.0,1.0,29,0.00,,,0.00,Wunderground v.1.15,2013-05-15 03:00:00,
2013-05-14 22:10:00,82.8,47.3,29.57,SW,235,1.0,5.0,29,0.00,,,0.00,Wunderground v.1.15,2013-05-15 03:10:00,
2013-05-14 22:20:00,82.8,48.2,29.58,WSW,245,2.0,5.0,30,0.00,,,0.00,Wunderground v.1.15,2013-05-15 03:20:00,
2013-05-14 22:30:00,82.6,47.1,29.58,SW,232,1.0,5.0,29,0.00,,,0.00,Wunderground v.1.15,2013-05-15 03:30:00,
2013-05-14 22:40:00,82.4,47.8,29.58,WSW,240,1.0,1.0,30,0.00,,,0.00,Wunderground v.1.15,2013-05-15 03:40:00,
2013-05-14 22:50:00,82.0,48.4,29.59,SW,230,1.0,7.0,31,0.00,,,0.00,Wunderground v.1.15,2013-05-15 03:50:00,
2013-05-14 23:00:00,81.8,48.2,29.59,West,279,2.0,2.0,31,0.00,,,0.00,Wunderground v.1.15,2013-05-15 04:00:00,
2013-05-14 23:10:00,81.6,48.0,29.59,West,275,2.0,5.0,31,0.00,,,0.00,Wunderground v.1.15,2013-05-15 04:10:00,
2013-05-14 23:20:00,81.2,48.5,29.60,South,172,2.0,2.0,32,0.00,,,0.00,Wunderground v.1.15,2013-05-15 04:20:00,
2013-05-14 23:30:00,80.9,48.3,29.61,West,281,1.0,1.0,32,0.00,,,0.00,Wunderground v.1.15,2013-05-15 04:30:00,
2013-05-14 23:40:00,80.5,48.7,29.61,WNW,301,1.0,1.0,33,0.00,,,0.00,Wunderground v.1.15,2013-05-15 04:40:00,
2013-05-14 23:50:00,79.9,49.8,29.63,NW,306,1.0,1.0,35,0.00,,,0.00,Wunderground v.1.15,2013-05-15 04:50:00,